Time;durP1;ratioP1;P1;durP2;ratioP2;P2;SDS_P1;SDS_P2;PMS_P1;PMS_P2;Temp;Humidity;BMP_temperature;BMP_pressure;BME280_temperature;BME280_humidity;BME280_pressure;Samples;Min_cycle;Max_cycle;Signal;HPM_P1;HPM_P2
2022/11/23 00:01:37;;;;;;;249.18;56.70;;;2.20;99.90;;;0.43;100.00;99953.28;5001306;28;20031;-84
2022/11/23 00:04:17;;;;;;;136.70;34.70;;;2.20;99.90;;;0.36;100.00;99945.63;4993554;28;20140;-84
2022/11/23 00:07:06;;;;;;;253.38;59.05;;;2.30;99.90;;;0.45;100.00;99957.56;4999562;28;20026;-84
2022/11/23 00:09:34;;;;;;;234.55;57.88;;;2.30;99.90;;;0.45;100.00;99957.56;4996781;28;20026;-84
2022/11/23 00:12:00;;;;;;;212.73;59.65;;;2.20;99.90;;;0.35;100.00;99938.75;5000889;28;20026;-84
2022/11/23 00:15:04;;;;;;;240.27;59.17;;;2.20;99.90;;;0.35;100.00;99940.50;4990018;28;20044;-83
2022/11/23 00:17:36;;;;;;;223.50;57.30;;;;;;;0.38;100.00;99948.19;4995971;23;20070;-85
2022/11/23 00:20:09;;;;;;;174.15;44.22;;;2.20;99.90;;;0.44;100.00;99952.41;4963827;28;20450;-85
2022/11/23 00:22:35;;;;;;;236.77;59.20;;;2.20;99.90;;;0.47;100.00;99958.38;4967032;28;20046;-85
2022/11/23 00:25:11;;;;;;;228.07;58.75;;;2.30;99.90;;;0.52;100.00;99963.47;4964655;28;20031;-84
2022/11/23 00:27:38;;;;;;;233.23;57.78;;;;;;;0.55;100.00;99966.88;4968269;28;20031;-85
2022/11/23 00:30:04;;;;;;;221.82;59.10;;;2.30;99.90;;;0.61;100.00;99965.94;4969665;28;20175;-84
2022/11/23 00:32:40;;;;;;;;;;;;;;;;;;;;;
2022/11/23 00:35:07;;;;;;;243.70;58.75;;;2.40;99.90;;;0.66;100.00;99976.22;4964148;28;20110;-85
2022/11/23 00:37:36;;;;;;;241.25;62.42;;;2.40;99.90;;;0.66;100.00;99981.38;4975473;23;20050;-85
2022/11/23 00:40:24;;;;;;;255.10;60.95;;;2.40;99.90;;;0.64;100.00;99972.78;4944023;28;20031;-84
2022/11/23 00:42:55;;;;;;;225.55;60.53;;;2.40;99.90;;;0.67;100.00;99976.19;4969571;28;20035;-85
2022/11/23 00:45:44;;;;;;;243.13;59.13;;;2.40;99.90;;;0.61;100.00;99968.53;4958384;28;20031;-85
2022/11/23 00:48:10;;;;;;;242.38;62.38;;;2.50;99.90;;;0.68;100.00;99972.69;4943507;28;20064;-85
2022/11/23 00:50:36;;;;;;;125.47;30.80;;;2.50;99.90;;;0.55;100.00;99972.06;4947381;28;20038;-85
2022/11/23 00:53:04;;;;;;;245.90;61.30;;;2.40;99.90;;;0.70;100.00;99981.31;4944341;29;20027;-85
2022/11/23 00:55:39;;;;;;;240.82;61.60;;;2.50;99.90;;;0.74;100.00;99984.69;4945003;28;20496;-85
2022/11/23 00:58:05;;;;;;;240.82;59.90;;;2.50;99.90;;;0.77;100.00;99995.84;4924783;28;20038;-85
2022/11/23 01:00:33;;;;;;;247.75;62.10;;;2.50;99.90;;;0.79;100.00;99995.81;4932619;28;20046;-86
2022/11/23 01:03:09;;;;;;;233.75;61.20;;;2.50;99.90;;;0.78;100.00;99997.56;4945854;28;20022;-86
2022/11/23 01:05:50;;;;;;;249.18;61.88;;;2.50;99.90;;;0.78;100.00;99999.31;4933531;28;20069;-86
2022/11/23 01:08:16;;;;;;;239.48;63.08;;;2.60;99.90;;;0.85;100.00;99997.47;4929205;28;20062;-87
2022/11/23 01:10:47;;;;;;;232.02;62.67;;;2.60;99.90;;;0.85;100.00;99998.31;4940598;28;20503;-80
2022/11/23 01:13:16;;;;;;;253.27;63.00;;;2.60;99.90;;;0.88;100.00;99998.25;4949610;29;20043;-86
2022/11/23 01:15:51;;;;;;;240.38;62.95;;;2.60;99.90;;;0.85;100.00;99998.31;4950896;28;20031;-86
2022/11/23 01:18:22;;;;;;;243.63;61.63;;;2.60;99.90;;;0.87;100.00;99985.34;4936493;28;20173;-85
2022/11/23 01:20:48;;;;;;;246.43;64.70;;;2.60;99.90;;;0.85;100.00;99990.53;4938103;28;20035;-85
2022/11/23 01:23:54;;;;;;;245.32;62.88;;;2.60;99.90;;;0.80;100.00;99994.97;4931651;28;20117;-85
2022/11/23 01:26:20;;;;;;;243.88;64.10;;;2.60;99.90;;;0.77;100.00;99985.47;4936614;28;20085;-85
2022/11/23 01:28:46;;;;;;;244.65;65.63;;;2.60;99.90;;;0.78;100.00;99986.34;4949072;28;20050;-85
2022/11/23 01:32:16;;;;;;;240.60;63.13;;;2.60;99.90;;;0.75;100.00;99995.00;4943931;29;20555;-86
2022/11/23 01:35:06;;;;;;;252.70;64.25;;;2.60;99.90;;;0.82;100.00;100003.53;4873287;29;20036;-85
2022/11/23 01:37:45;;;;;;;249.55;65.25;;;2.60;99.90;;;0.77;100.00;99995.00;4945559;23;20038;-86
2022/11/23 01:40:16;;;;;;;251.68;66.68;;;;;;;0.79;100.00;100004.44;4944238;28;20057;-85
2022/11/23 01:50:37;;;;;;;250.88;64.20;;;2.60;99.90;;;0.70;100.00;99999.44;4993722;28;20043;-85
2022/11/23 01:53:38;;;;;;;;;;;;;;;;;;;;;
2022/11/23 02:19:56;;;;;;;271.27;68.70;;;2.50;99.90;;;0.72;100.00;99987.31;5058297;22;20058;-85
2022/11/23 02:32:29;;;;;;;271.15;67.57;;;2.60;99.90;;;0.76;100.00;99994.16;4993902;28;20042;-86
2022/11/23 02:35:59;;;;;;;274.30;70.57;;;2.60;99.90;;;0.80;100.00;99994.97;4946072;28;20030;-86
2022/11/23 02:38:41;;;;;;;269.38;69.18;;;;;;;0.80;100.00;99992.38;4946182;28;20039;-87
2022/11/23 02:42:00;;;;;;;;;;;;;;;;;;;;;
2022/11/23 02:45:20;;;;;;;263.65;70.78;;;2.60;99.90;;;0.78;100.00;99996.72;4952307;28;20033;-87
2022/11/23 02:55:26;;;;;;;262.23;71.50;;;;;;;0.79;100.00;100007.03;4829721;29;20087;-87
2022/11/23 03:03:58;;;;;;;285.17;73.40;;;2.60;99.90;;;0.83;100.00;100010.44;4992029;28;20137;-87
2022/11/23 03:11:58;;;;;;;282.10;71.97;;;;;;;0.88;100.00;100008.59;2106445;22;21687;31
2022/11/23 03:14:40;;;;;;;268.40;73.07;;;;;;;0.90;100.00;100006.00;4988318;28;20266;-87
2022/11/23 03:17:18;;;;;;;280.73;73.90;;;2.70;99.90;;;0.93;100.00;100006.81;4987853;28;20026;-87
2022/11/23 03:20:57;;;;;;;;;;;;;;;;;;;;;
2022/11/23 03:23:26;;;;;;;299.70;75.13;;;;;;;0.98;100.00;100011.91;4931013;29;20452;-87
2022/11/23 03:47:22;;;;;;;;;;;;;;;;;;;;;
2022/11/23 03:49:48;;;;;;;304.05;75.75;;;;;;;0.88;100.00;100007.75;5015318;28;20123;-87
2022/11/23 03:58:48;;;;;;;285.55;74.95;;;2.60;99.90;;;0.73;100.00;99993.34;5032991;22;20054;-86
2022/11/23 04:05:19;;;;;;;286.02;74.95;;;2.60;99.90;;;0.70;100.00;99993.41;5001241;28;20057;-87
2022/11/23 04:09:09;;;;;;;;;;;;;;;;;;;;;
2022/11/23 04:11:39;;;;;;;287.00;73.70;;;;;;;0.79;100.00;99991.50;4988021;28;20510;-88
2022/11/23 04:14:36;;;;;;;306.80;77.20;;;2.60;99.90;;;0.76;100.00;99999.34;4986853;28;20044;-87
2022/11/23 04:24:09;;;;;;;;;;;;;;;;;;;;;
2022/11/23 04:26:39;;;;;;;293.40;75.03;;;2.50;99.90;;;0.70;100.00;100004.63;4963871;28;20499;-87
2022/11/23 04:33:18;;;;;;;264.52;66.38;;;2.50;99.90;;;0.65;100.00;100001.28;4920853;29;20040;-88
2022/11/23 04:38:38;;;;;;;317.08;77.65;;;2.60;99.90;;;0.73;100.00;100016.66;4984045;22;20096;-87
2022/11/23 04:41:31;;;;;;;157.07;44.20;;;2.50;99.90;;;0.58;100.00;99999.66;4970276;28;20041;-87
2022/11/23 04:47:26;;;;;;;316.88;71.85;;;2.50;99.90;;;0.61;100.00;100003.03;4940016;29;20619;-87
2022/11/23 04:51:09;;;;;;;347.13;80.38;;;2.50;99.90;;;0.65;100.00;100003.88;4939760;29;20066;-88
2022/11/23 04:54:25;;;;;;;357.55;79.25;;;2.40;99.90;;;0.58;100.00;100003.13;4922114;29;20126;-88
2022/11/23 04:57:19;;;;;;;354.83;78.65;;;2.50;99.90;;;0.55;100.00;99995.38;4957898;28;20049;-87
2022/11/23 05:00:00;;;;;;;360.92;80.88;;;;;;;0.60;100.00;100003.94;4947236;28;20047;-88
2022/11/23 05:03:27;;;;;;;350.63;81.03;;;2.40;99.90;;;0.61;100.00;100007.38;4956563;28;20065;-87
2022/11/23 05:08:48;;;;;;;396.08;84.22;;;2.50;99.90;;;0.65;100.00;100002.97;5095003;22;20058;-88
2022/11/23 05:11:38;;;;;;;370.80;81.00;;;2.40;99.90;;;0.55;100.00;99999.72;5004306;28;20048;-87
2022/11/23 05:14:08;;;;;;;317.90;70.70;;;2.40;99.90;;;0.51;100.00;100001.50;4967299;28;20045;-87
2022/11/23 05:16:45;;;;;;;398.95;84.00;;;2.40;99.90;;;0.57;100.00;100011.75;4995982;28;20117;-87
2022/11/23 05:19:21;;;;;;;;;;;;;;;;;;;;;
2022/11/23 05:21:47;;;;;;;389.48;83.97;;;2.40;99.90;;;0.56;100.00;100009.19;4970824;28;20018;-87
2022/11/23 05:24:16;;;;;;;373.17;80.40;;;2.40;99.90;;;0.48;100.00;100004.16;4959321;28;20121;-87
2022/11/23 05:27:08;;;;;;;352.17;75.65;;;2.40;99.90;;;0.54;100.00;100009.22;4988510;28;20104;-87
2022/11/23 05:29:37;;;;;;;433.83;85.47;;;2.40;99.90;;;0.59;100.00;100015.16;4975871;28;20037;-87
2022/11/23 05:32:27;;;;;;;442.13;87.53;;;;;;;0.64;100.00;100009.06;4966558;28;20698;-87
2022/11/23 05:35:29;;;;;;;426.77;84.30;;;2.40;99.90;;;0.63;100.00;100013.41;4983652;28;20097;-87
2022/11/23 05:38:33;;;;;;;443.15;86.00;;;;;;;0.63;100.00;100018.56;4994914;28;20117;-88
2022/11/23 05:41:00;;;;;;;453.75;88.38;;;;;;;0.62;100.00;100019.44;4983467;28;20030;-87
2022/11/23 05:43:57;;;;;;;449.10;88.68;;;2.40;99.90;;;0.64;100.00;100024.59;4983138;28;20490;-87
2022/11/23 05:47:09;;;;;;;440.95;88.93;;;2.50;99.90;;;0.69;100.00;100018.47;5028833;23;20448;-88
2022/11/23 05:49:49;;;;;;;440.58;88.32;;;2.50;99.90;;;0.71;100.00;100015.84;5003937;28;20029;-88
2022/11/23 05:52:16;;;;;;;467.45;89.63;;;2.50;99.90;;;0.71;100.00;100014.09;4991323;28;20046;-87
2022/11/23 05:55:38;;;;;;;462.67;88.88;;;2.50;99.90;;;0.79;100.00;100011.38;4989267;28;20038;-87
2022/11/23 05:58:07;;;;;;;527.50;89.07;;;;;;;0.73;100.00;100020.09;5011109;28;20663;-87
2022/11/23 06:00:56;;;;;;;500.27;93.97;;;;;;;0.69;100.00;100021.06;5016696;28;20033;-87
2022/11/23 06:03:28;;;;;;;527.95;91.97;;;;;;;0.63;100.00;100022.88;5017416;28;20060;-87
2022/11/23 06:06:07;;;;;;;432.05;76.97;;;2.40;99.90;;;0.52;100.00;100010.09;5006167;28;20022;-87
2022/11/23 06:08:48;;;;;;;500.25;89.38;;;2.40;99.90;;;0.56;100.00;100011.78;5027970;28;20033;-87
2022/11/23 06:11:25;;;;;;;546.15;92.68;;;;;;;0.60;100.00;100008.25;5004496;28;20561;-87
2022/11/23 06:14:08;;;;;;;566.25;96.32;;;2.40;99.90;;;0.55;100.00;100018.69;5012718;28;20033;-86
2022/11/23 06:16:57;;;;;;;553.90;97.05;;;2.40;99.90;;;0.58;100.00;100016.06;4983626;28;20026;-87
2022/11/23 06:19:28;;;;;;;583.90;102.13;;;2.40;99.90;;;0.66;100.00;100012.47;5028704;28;20047;-88
2022/11/23 06:22:03;;;;;;;582.33;104.35;;;;;;;0.65;100.00;100005.56;4999425;28;20033;-86
2022/11/23 06:24:29;;;;;;;573.10;95.50;;;2.40;99.90;;;0.59;100.00;100010.00;5019359;28;20561;-86
2022/11/23 06:26:55;;;;;;;575.08;98.88;;;2.40;99.90;;;0.58;100.00;100003.13;4993127;28;20029;-87
2022/11/23 06:29:21;;;;;;;554.95;96.65;;;2.40;99.90;;;0.56;100.00;100011.78;5014334;28;20498;-87
2022/11/23 06:31:56;;;;;;;307.50;56.15;;;2.30;99.90;;;0.43;100.00;100011.13;5023398;28;20033;-86
2022/11/23 06:34:24;;;;;;;349.10;64.35;;;2.30;99.90;;;0.42;100.00;100012.00;4990966;28;20025;-87
2022/11/23 06:36:59;;;;;;;500.02;87.50;;;;;;;0.45;100.00;100017.13;5024562;28;20049;-85
2022/11/23 06:39:25;;;;;;;548.75;88.75;;;2.30;99.90;;;0.55;100.00;100026.47;5019142;28;20108;-87
2022/11/23 06:41:59;;;;;;;542.20;89.78;;;2.30;99.90;;;0.54;100.00;100024.78;5018448;28;20120;-87
2022/11/23 06:44:25;;;;;;;548.28;91.45;;;2.30;99.90;;;0.53;100.00;100017.00;5002847;28;20068;-87
2022/11/23 06:46:53;;;;;;;470.50;80.68;;;2.30;99.90;;;0.47;100.00;100017.97;5021764;28;20061;-86
2022/11/23 06:49:20;;;;;;;554.30;92.15;;;;;;;0.53;100.00;100036.00;5015416;28;20025;-86
2022/11/23 06:51:56;;;;;;;417.63;72.30;;;;;;;0.46;100.00;100028.38;5019049;28;20029;-86
2022/11/23 06:54:25;;;;;;;524.38;91.47;;;;;;;0.59;100.00;100035.91;5013992;28;20033;-86
2022/11/23 06:56:57;;;;;;;526.10;90.88;;;;;;;0.61;100.00;100044.50;5014243;28;20449;-86
2022/11/23 06:59:25;;;;;;;519.72;85.32;;;2.40;99.90;;;0.59;100.00;100043.66;5016773;28;20148;-86
2022/11/23 07:02:08;;;;;;;518.72;90.13;;;;;;;0.64;100.00;100043.59;5001828;28;20053;-86
2022/11/23 07:04:43;;;;;;;469.45;84.82;;;;;;;0.61;100.00;100049.69;5037062;28;20084;-85
2022/11/23 07:07:09;;;;;;;412.98;74.30;;;2.40;99.90;;;0.49;100.00;100047.28;5014140;28;20029;-85
2022/11/23 07:09:47;;;;;;;504.30;89.07;;;2.40;99.90;;;0.53;100.00;100059.31;4999558;28;20022;-86
2022/11/23 07:12:15;;;;;;;524.75;91.28;;;2.40;99.90;;;0.58;100.00;100051.47;5009339;28;20233;-86
2022/11/23 07:14:43;;;;;;;520.97;90.95;;;2.40;99.90;;;0.60;100.00;100054.88;5003746;28;20108;-85
2022/11/23 07:17:14;;;;;;;515.88;86.43;;;2.40;99.90;;;0.53;100.00;100046.34;5009185;28;20034;-85
2022/11/23 07:19:43;;;;;;;502.02;91.50;;;2.40;99.90;;;0.59;100.00;100054.03;4998051;28;20512;-86
2022/11/23 07:22:08;;;;;;;445.02;83.38;;;2.40;99.90;;;0.60;100.00;100060.06;5005684;28;20120;-85
2022/11/23 07:24:57;;;;;;;415.33;73.65;;;2.40;99.90;;;0.53;100.00;100058.47;4989468;28;20393;-86
2022/11/23 07:27:26;;;;;;;437.70;76.53;;;2.40;99.90;;;0.61;100.00;100057.47;5028384;28;20033;-86
2022/11/23 07:30:06;;;;;;;415.70;79.07;;;2.40;99.90;;;0.60;100.00;100058.34;5023807;28;20029;-86
2022/11/23 07:32:47;;;;;;;447.98;84.50;;;2.40;99.90;;;0.58;100.00;100062.69;5022913;28;20105;-86
2022/11/23 07:35:13;;;;;;;448.20;83.90;;;2.40;99.90;;;0.58;100.00;100051.47;5029921;28;20053;-86
2022/11/23 07:37:46;;;;;;;423.60;83.38;;;2.50;99.90;;;0.69;100.00;100059.06;5003653;28;20490;-86
2022/11/23 07:40:13;;;;;;;451.42;84.55;;;2.50;99.90;;;0.73;100.00;100061.56;4997934;28;20095;-86
2022/11/23 07:42:39;;;;;;;422.25;84.85;;;2.50;99.90;;;0.71;100.00;100052.97;5019586;28;20032;-86
2022/11/23 07:45:14;;;;;;;428.13;81.50;;;2.50;99.90;;;0.75;100.00;100062.41;4995016;28;20026;-86
2022/11/23 07:47:51;;;;;;;426.75;82.03;;;;;;;0.77;100.00;100049.41;4996199;28;20515;-85
2022/11/23 07:50:17;;;;;;;408.38;82.65;;;2.60;99.90;;;0.79;100.00;100056.28;5024443;28;20093;-86
2022/11/23 07:52:47;;;;;;;407.38;81.47;;;2.60;99.90;;;0.80;100.00;100051.97;5003830;28;20053;-86
2022/11/23 07:55:12;;;;;;;284.63;62.67;;;2.60;99.90;;;0.76;100.00;100060.69;5019072;28;20037;-85
2022/11/23 07:57:41;;;;;;;347.05;70.00;;;2.60;99.90;;;0.75;100.00;100064.13;5004492;23;20119;-81
2022/11/23 08:00:41;;;;;;;344.58;72.18;;;2.60;99.90;;;0.80;100.00;100068.38;4996000;28;20403;-81
2022/11/23 08:03:12;;;;;;;324.48;71.78;;;2.70;99.90;;;0.84;100.00;100068.31;4973571;28;20647;-81
2022/11/23 08:05:38;;;;;;;325.23;71.43;;;2.70;99.90;;;0.81;100.00;100064.03;4970652;28;20041;-80
2022/11/23 08:08:06;;;;;;;387.63;84.35;;;2.60;99.90;;;0.87;100.00;100076.91;4985190;28;20034;-81
2022/11/23 08:10:32;;;;;;;366.42;79.47;;;2.70;99.90;;;0.90;100.00;100069.06;4973630;28;20039;-82
2022/11/23 08:13:00;;;;;;;378.35;83.60;;;2.70;99.90;;;1.02;100.00;100087.00;4973886;28;20030;-80
2022/11/23 08:15:29;;;;;;;379.08;83.60;;;2.80;99.90;;;1.06;100.00;100071.38;4953097;28;20369;-81
2022/11/23 08:17:57;;;;;;;359.35;82.20;;;2.80;99.90;;;1.06;100.00;100079.16;4966487;28;20582;-81
2022/11/23 08:20:23;;;;;;;381.75;84.95;;;2.80;99.90;;;1.02;100.00;100079.22;4959856;28;20547;-82
2022/11/23 08:22:49;;;;;;;376.10;83.95;;;2.80;99.90;;;1.07;100.00;100076.53;4973385;28;20138;-81
2022/11/23 08:25:15;;;;;;;341.65;78.82;;;2.80;99.90;;;1.03;100.00;100074.88;4966460;28;20462;-81
2022/11/23 08:27:41;;;;;;;366.83;81.40;;;2.80;99.90;;;1.10;100.00;100071.31;4973349;28;20042;-81
2022/11/23 08:30:08;;;;;;;283.40;63.33;;;2.80;99.90;;;1.03;100.00;100075.72;4974873;28;20031;-80
2022/11/23 08:32:36;;;;;;;347.05;84.22;;;2.90;99.90;;;1.11;100.00;100075.59;4972192;28;20113;-81
2022/11/23 08:35:02;;;;;;;291.83;70.82;;;2.90;99.90;;;1.00;100.00;100078.38;4953154;28;20113;-82
2022/11/23 08:37:28;;;;;;;332.80;82.93;;;2.90;99.90;;;1.08;100.00;100082.56;4974014;28;20089;-80
2022/11/23 08:39:53;;;;;;;346.10;87.57;;;2.90;99.90;;;1.12;100.00;100068.66;4978156;28;20650;-81
2022/11/23 08:42:19;;;;;;;344.80;85.82;;;2.90;99.90;;;1.23;100.00;100077.09;4953034;28;20057;-79
2022/11/23 08:44:45;;;;;;;341.02;86.60;;;3.00;99.90;;;1.24;100.00;100078.81;4976163;28;20069;-81
2022/11/23 08:47:11;;;;;;;313.98;73.70;;;3.00;99.90;;;1.29;100.00;100079.59;4969505;28;20027;-81
2022/11/23 08:49:37;;;;;;;317.25;77.95;;;3.10;99.90;;;1.32;100.00;100089.03;4976845;28;20034;-80
2022/11/23 08:52:06;;;;;;;294.95;73.43;;;3.00;99.90;;;1.31;100.00;100082.16;4973598;28;20102;-81
2022/11/23 08:54:32;;;;;;;323.15;77.18;;;3.10;99.90;;;1.42;100.00;100093.19;4977489;28;20073;-80
2022/11/23 08:56:57;;;;;;;332.88;79.95;;;3.10;99.90;;;1.48;100.00;100084.44;4966337;28;20034;-81
2022/11/23 08:59:23;;;;;;;316.58;78.32;;;3.20;99.90;;;1.49;100.00;100091.31;4983149;28;20031;-81
2022/11/23 09:01:49;;;;;;;300.10;79.70;;;3.30;99.90;;;1.46;100.00;100084.47;4956361;28;20104;-80
2022/11/23 09:04:15;;;;;;;289.55;75.15;;;3.20;99.90;;;1.55;100.00;100089.47;4979700;28;20039;-81
2022/11/23 09:06:47;;;;;;;282.70;74.70;;;3.30;99.90;;;1.54;100.00;100084.31;4953970;28;20053;-80
2022/11/23 09:09:16;;;;;;;275.50;73.10;;;3.20;99.90;;;1.47;100.00;100083.59;4955579;28;20046;-81
2022/11/23 09:11:42;;;;;;;246.10;66.68;;;3.30;99.90;;;1.46;100.00;100089.66;4966915;28;20039;-80
2022/11/23 09:14:09;;;;;;;278.40;72.75;;;3.30;99.90;;;1.51;100.00;100094.75;4967030;28;20104;-81
2022/11/23 09:16:40;;;;;;;269.65;76.10;;;3.20;99.90;;;1.46;100.00;100086.19;4958463;28;20091;-81
2022/11/23 09:19:12;;;;;;;256.45;73.53;;;3.20;99.90;;;1.50;100.00;100086.09;4962501;28;20081;-81
2022/11/23 09:21:46;;;;;;;253.77;74.30;;;3.20;99.90;;;1.40;100.00;100093.22;4952398;28;20023;-80
2022/11/23 09:24:12;;;;;;;256.40;71.90;;;3.20;99.90;;;1.46;100.00;100086.19;4953513;28;20107;-81
2022/11/23 09:26:39;;;;;;;252.15;73.10;;;3.30;99.90;;;1.47;100.00;100093.09;4975483;28;20554;-80
2022/11/23 09:29:07;;;;;;;236.82;66.53;;;3.30;99.90;;;1.46;100.00;100088.78;4958015;28;20054;-79
2022/11/23 09:31:36;;;;;;;263.30;74.55;;;3.20;99.90;;;1.47;100.00;100087.91;4965737;28;20046;-81
2022/11/23 09:34:04;;;;;;;277.00;82.03;;;3.30;99.90;;;1.49;100.00;100088.72;4975566;28;20042;-81
2022/11/23 09:36:42;;;;;;;55.35;23.67;;;3.30;99.90;;;1.51;100.00;100082.66;4963506;28;20033;-81
2022/11/23 09:39:11;;;;;;;0.00;0.00;;;3.30;99.90;;;1.58;100.00;100086.81;4962383;28;20497;-80
2022/11/23 09:42:20;;;;;;;0.00;0.00;;;3.40;99.90;;;1.67;100.00;100087.53;4988634;28;20167;-80
2022/11/23 09:45:28;;;;;;;0.00;0.00;;;3.40;99.90;;;1.66;100.00;100091.00;4979312;28;20073;-80
2022/11/23 09:48:01;;;;;;;0.00;0.00;;;3.40;99.90;;;1.64;100.00;100078.91;4997217;28;20058;-82
2022/11/23 09:50:51;;;;;;;0.00;0.00;;;3.40;99.90;;;1.63;100.00;100084.13;4982999;28;20043;-81
2022/11/23 09:53:45;;;;;;;0.00;0.00;;;3.40;99.90;;;1.59;100.00;100074.69;4978140;28;20031;-80
2022/11/23 09:56:31;;;;;;;0.00;0.00;;;3.40;99.90;;;1.67;100.00;100088.38;4960094;28;20041;-81
2022/11/23 09:59:13;;;;;;;0.00;0.00;;;3.40;99.90;;;1.69;100.00;100088.34;4980110;28;20035;-80
2022/11/23 10:01:44;;;;;;;0.00;0.00;;;3.40;99.90;;;1.75;100.00;100085.59;4996795;28;20042;-80
2022/11/23 10:04:24;;;;;;;0.00;0.00;;;3.50;99.90;;;1.82;100.00;100089.81;4981874;28;20073;-80
2022/11/23 10:07:22;;;;;;;0.00;0.00;;;3.50;99.90;;;1.84;100.00;100099.25;4978184;28;20035;-81
2022/11/23 10:10:45;;;;;;;0.00;0.00;;;3.60;99.90;;;1.82;100.00;100093.25;4984332;28;20061;-81
2022/11/23 10:13:24;;;;;;;0.00;0.00;;;3.60;99.90;;;1.88;100.00;100078.41;4974084;28;20045;-80
2022/11/23 10:16:08;;;;;;;0.00;0.00;;;3.60;99.90;;;1.92;100.00;100087.84;4979625;28;20039;-81
2022/11/23 10:19:19;;;;;;;0.00;0.00;;;3.60;99.90;;;1.91;100.00;100086.16;4976826;28;20027;-81
2022/11/23 10:22:19;;;;;;;0.00;0.00;;;3.60;99.90;;;1.93;100.00;100090.41;4968182;28;20047;-80
2022/11/23 10:24:51;;;;;;;0.00;0.00;;;3.60;99.90;;;1.90;100.00;100079.25;4981829;28;20038;-81
2022/11/23 10:27:22;;;;;;;0.00;0.00;;;3.70;99.90;;;1.98;100.00;100082.53;4980491;28;20646;-80
2022/11/23 10:30:00;;;;;;;0.00;0.00;;;3.70;99.90;;;2.06;100.00;100085.81;4953432;28;20023;-80
2022/11/23 10:32:58;;;;;;;0.00;0.00;;;3.80;99.90;;;2.05;100.00;100084.97;4953331;28;20415;-80
2022/11/23 10:35:36;;;;;;;0.00;0.00;;;3.80;99.90;;;2.12;100.00;100085.69;4980329;28;20110;-81
2022/11/23 10:38:25;;;;;;;0.00;0.00;;;3.80;99.90;;;2.15;100.00;100085.59;4970521;28;20041;-81
2022/11/23 10:41:15;;;;;;;0.00;0.00;;;3.80;99.90;;;2.15;100.00;100084.75;4995855;28;20039;-81
2022/11/23 10:44:21;;;;;;;0.00;0.00;;;3.80;99.90;;;2.19;100.00;100092.44;4995285;28;20415;-82
2022/11/23 10:46:50;;;;;;;0.00;0.00;;;3.90;99.90;;;2.25;100.00;100081.94;4985389;28;20026;-81
2022/11/23 10:49:27;;;;;;;0.00;0.00;;;3.90;99.90;;;2.28;100.00;100085.34;4960806;28;20058;-81
2022/11/23 10:52:27;;;;;;;0.00;0.00;;;3.90;99.90;;;2.14;100.00;100086.50;4973613;28;20047;-79
2022/11/23 10:54:57;;;;;;;0.00;0.00;;;3.90;99.90;;;2.26;100.00;100094.00;4983880;28;20035;-82
2022/11/23 10:57:43;;;;;;;0.00;0.00;;;3.90;99.90;;;2.32;100.00;100097.38;4993612;28;20530;-82
2022/11/23 11:00:14;;;;;;;0.00;0.00;;;4.00;99.90;;;2.32;100.00;100098.22;4979291;28;20380;-82
2022/11/23 11:02:46;;;;;;;0.00;0.00;;;4.00;99.90;;;2.37;100.00;100100.72;4988052;28;20450;-82
2022/11/23 11:05:25;;;;;;;0.00;0.00;;;4.00;99.90;;;2.32;100.00;100090.44;4978349;28;20161;-81
2022/11/23 11:07:54;;;;;;;0.00;0.00;;;4.00;99.90;;;2.37;100.00;100096.38;4984144;28;20113;-82
2022/11/23 11:10:45;;;;;;;0.00;0.00;;;4.00;99.90;;;2.25;100.00;100092.31;4985508;28;20031;-82
2022/11/23 11:13:27;;;;;;;0.00;0.00;;;4.00;99.90;;;2.25;100.00;100092.31;4986763;28;20095;-82
2022/11/23 11:16:06;;;;;;;0.00;0.00;;;4.00;99.90;;;2.30;100.00;100088.75;4985138;28;20049;-82
2022/11/23 11:18:36;;;;;;;1501.78;751.67;;;4.00;99.90;;;2.23;100.00;100086.31;4968413;28;20089;-83
2022/11/23 11:21:34;;;;;;;152.95;56.83;;;4.10;99.90;;;2.45;100.00;100078.00;4984862;28;20030;-83
2022/11/23 11:24:07;;;;;;;154.10;56.40;;;4.10;99.90;;;2.45;100.00;100086.66;4989783;28;20109;-82
2022/11/23 11:26:37;;;;;;;148.00;54.90;;;4.10;99.90;;;2.42;100.00;100080.69;4979557;28;20030;-82
2022/11/23 11:29:19;;;;;;;125.25;46.35;;;4.10;99.90;;;2.35;100.00;100081.72;5001737;28;20041;-82
2022/11/23 11:32:01;;;;;;;116.40;42.95;;;4.00;99.90;;;2.14;100.00;100083.91;4962748;28;20054;-84
2022/11/23 11:34:45;;;;;;;138.55;52.38;;;4.00;99.90;;;2.25;100.00;100079.31;4985792;28;20022;-82
2022/11/23 11:37:36;;;;;;;142.23;52.70;;;4.00;99.90;;;2.22;100.00;100079.38;4978138;28;20113;-83
2022/11/23 11:40:28;;;;;;;149.63;55.72;;;4.00;99.90;;;2.36;100.00;100081.69;4976743;28;20043;-83
2022/11/23 11:43:48;;;;;;;147.77;55.45;;;4.10;99.90;;;2.19;100.00;100083.81;4979964;28;20031;-83
2022/11/23 11:46:34;;;;;;;134.35;51.00;;;4.00;99.90;;;2.31;100.00;100075.75;4963894;28;20681;-83
2022/11/23 11:49:26;;;;;;;131.40;47.87;;;4.00;99.90;;;2.23;100.00;100082.84;4986992;28;20122;-82
2022/11/23 11:52:11;;;;;;;128.98;47.75;;;4.00;99.90;;;2.32;100.00;100087.84;4974776;28;20030;-83
2022/11/23 11:55:11;;;;;;;135.50;49.88;;;4.00;99.90;;;2.17;100.00;100070.00;4982726;28;20031;-83
2022/11/23 11:57:44;;;;;;;83.03;30.88;;;4.00;99.90;;;2.14;100.00;100068.34;4982543;28;20591;-82
2022/11/23 12:00:16;;;;;;;135.88;51.08;;;4.00;99.90;;;2.20;100.00;100070.78;4980632;28;20031;-82
2022/11/23 12:03:06;;;;;;;132.55;50.78;;;4.00;99.90;;;2.24;100.00;100075.00;4978742;28;20031;-83
2022/11/23 12:05:48;;;;;;;138.80;51.85;;;4.00;99.90;;;2.25;100.00;100070.69;4985747;28;20030;-83
2022/11/23 12:08:40;;;;;;;120.30;44.92;;;4.00;99.90;;;2.32;100.00;100059.25;4983865;28;20038;-83
2022/11/23 12:11:10;;;;;;;141.52;52.72;;;4.10;99.90;;;2.39;100.00;100059.97;4982978;28;20038;-81
2022/11/23 12:13:44;;;;;;;127.90;50.80;;;4.00;99.90;;;2.26;100.00;100069.78;5003633;28;20034;-82
2022/11/23 12:16:40;;;;;;;137.70;52.72;;;4.10;99.90;;;2.45;100.00;100083.22;4977761;28;20027;-82
2022/11/23 12:19:26;;;;;;;135.15;52.72;;;4.10;99.90;;;2.56;100.00;100081.19;4983005;28;20035;-83
2022/11/23 12:22:45;;;;;;;93.22;35.60;;;4.20;99.90;;;2.46;100.00;100072.78;4961895;28;20026;-83
2022/11/23 12:25:26;;;;;;;130.80;51.55;;;4.20;99.90;;;2.49;100.00;100079.66;4951743;28;20379;-82
2022/11/23 12:28:15;;;;;;;133.10;51.65;;;4.10;99.90;;;2.38;100.00;100085.09;4974518;28;20066;-82
2022/11/23 12:31:14;;;;;;;124.90;50.00;;;4.10;99.90;;;2.40;100.00;100087.66;4988322;28;20125;-82
2022/11/23 12:34:07;;;;;;;95.38;33.90;;;4.10;99.90;;;2.18;100.00;100075.16;4984048;28;20034;-80
2022/11/23 12:36:52;;;;;;;123.78;48.05;;;4.00;99.90;;;2.22;100.00;100076.78;4984203;28;20572;-82
2022/11/23 12:39:42;;;;;;;134.75;50.42;;;4.00;99.90;;;2.25;100.00;100071.53;4977413;28;20128;-83
2022/11/23 12:42:45;;;;;;;123.55;50.63;;;4.00;99.90;;;2.23;100.00;100073.31;4979951;28;20034;-82
2022/11/23 12:45:45;;;;;;;132.23;52.88;;;4.00;99.90;;;2.28;100.00;100075.81;4999298;28;20034;-83
2022/11/23 12:48:17;;;;;;;129.23;49.63;;;4.00;99.90;;;2.28;100.00;100069.75;4982242;28;20056;-82
2022/11/23 12:51:03;;;;;;;131.93;51.92;;;4.00;99.90;;;2.35;100.00;100072.16;4985087;28;20503;-81
2022/11/23 12:54:06;;;;;;;1999.90;999.90;;;4.00;99.90;;;2.24;100.00;100072.41;4981825;28;20022;-81
2022/11/23 12:56:56;;;;;;;135.55;51.90;;;4.00;99.90;;;2.23;100.00;100073.31;4977516;28;20507;-83
2022/11/23 12:59:25;;;;;;;137.95;52.65;;;4.00;99.90;;;2.23;100.00;100067.28;4984640;28;20082;-83
2022/11/23 13:03:58;;;;;;;112.45;42.88;;;4.00;99.90;;;2.23;100.00;100070.72;5162016;27;20388;-81
2022/11/23 13:06:32;;;;;;;130.85;52.97;;;4.00;99.90;;;2.26;100.00;100073.22;5142830;27;20399;-82